Namao — CZ9742 — position and weather

sailwx.info

Track history (hours):
 
Tides and Currents Weather Stations Pressure Air Temp Water Temp Dewpoint Dewpoint Depression Visibility Wind Speed Wind Dir Waves Ship Positions

Oceanographic research ship Namao (Canada)

Last reported at 2017-Dec-17 00:00 UTC. Time now 2017-Dec-17 00:53 UTC.
Position N 50°36' W 096°54'.

Wind from 190 at 7 knots

Barometer 1017.1 mb
Air temperature -11.8 ° C
Dewpoint -13.3 ° C

Date/timePositionNaut miles runAvg speedWind from/ knotsBaromVisibWave heightAir tempDewpointWater temp
2017-Dec-17 00:00N 50°36' W 096°54'0 0.0 190 / 71017.1 -11.8-13.3
2017-Dec-16 23:00N 50°36' W 096°54'0 0.0 170 / 81016.5 -12.0-13.8
2017-Dec-16 22:00N 50°36' W 096°54'0 0.0 180 / 71016.3 -12.3-14.1
2017-Dec-16 21:00N 50°36' W 096°54'0 0.0 160 / 91015.6 -12.7-14.4
2017-Dec-16 20:00N 50°36' W 096°54'0 0.0 160 / 71015.7 -13.3-14.9
2017-Dec-16 19:00N 50°36' W 096°54'0 0.0 140 / 91015.6 -13.9-15.6
2017-Dec-16 18:00N 50°36' W 096°54'0 0.0 130 / 91015.7 -14.1-15.9
2017-Dec-16 17:00N 50°36' W 096°54'0 0.0 140 / 101016.0 -15.3-17.5
2017-Dec-16 16:00N 50°36' W 096°54'0 0.0 120 / 111015.1 -15.1-17.7
2017-Dec-16 15:00N 50°36' W 096°54'0 0.0 110 / 121014.5 -15.2-17.7
2017-Dec-16 14:00N 50°36' W 096°54'0 0.0 130 / 111013.6 -15.4-17.8
2017-Dec-16 13:00N 50°36' W 096°54'0 0.0 120 / 111013.2 -15.5-17.9
2017-Dec-16 12:00N 50°36' W 096°54'0 0.0 100 / 81012.8 -15.7-17.9
2017-Dec-16 11:00N 50°36' W 096°54'0 0.0 100 / 111012.1 -15.6-17.9
2017-Dec-16 10:00N 50°36' W 096°54'0 0.0 110 / 121012.5 -15.7-18.2
2017-Dec-16 09:00N 50°36' W 096°54'0 0.0 110 / 111012.3 -15.8-18.6
2017-Dec-16 08:00N 50°36' W 096°54'0 0.0 100 / 101011.5 -15.8-18.7
2017-Dec-16 07:00N 50°36' W 096°54'0 0.0 100 / 111011.7 -15.9-18.8
2017-Dec-16 06:00N 50°36' W 096°54'0 0.0 090 / 121010.9 -15.6-18.4
2017-Dec-16 05:00N 50°36' W 096°54'0 0.0 100 / 111010.4 -14.9-17.6
2017-Dec-16 04:00N 50°36' W 096°54'0 0.0 100 / 121010.1 -14.7-17.3
2017-Dec-16 03:00N 50°36' W 096°54'0 0.0 090 / 121010.1 -14.5-17.1
2017-Dec-16 02:00N 50°36' W 096°54'0 0.0 090 / 101010.1 -14.3-16.9
2017-Dec-16 01:00N 50°36' W 096°54'0 0.0 090 / 111009.9 -14.4-16.7
2017-Dec-16 00:00N 50°36' W 096°54'0 0.0 090 / 131010.1 -14.4-16.6
2017-Dec-15 23:00N 50°36' W 096°54'0 0.0 080 / 111010.3 -13.9-15.8
2017-Dec-15 22:00N 50°36' W 096°54'0 0.0 090 / 91010.4 -13.7-15.1
2017-Dec-15 21:00N 50°36' W 096°54'0 0.0 090 / 81010.4 -13.8-15.6
2017-Dec-15 20:00N 50°36' W 096°54'0 0.0 090 / 101010.2 -14.2-16.3
2017-Dec-15 19:00N 50°36' W 096°54'0 0.0 080 / 91011.1 -14.2-15.8
2017-Dec-15 18:00N 50°36' W 096°54'0 0.0 090 / 81011.8 -13.7-15.6
2017-Dec-15 17:00N 50°36' W 096°54'0 0.0 110 / 61012.7 -13.8-15.5
2017-Dec-15 16:00N 50°36' W 096°54'0 0.0 120 / 61012.9 -14.9-16.6
2017-Dec-15 15:00N 50°36' W 096°54'0 0.0 110 / 51013.9 -15.5-17.3
2017-Dec-15 14:00N 50°36' W 096°54'0 0.0 090 / 41014.3 -16.0-17.7
2017-Dec-15 13:00N 50°36' W 096°54'0 0.0 150 / 31015.0 -19.0-20.9
2017-Dec-15 12:00N 50°36' W 096°54'0 0.0 140 / 21015.7 -17.0-18.8
2017-Dec-15 11:00N 50°36' W 096°54'0 0.0 360 / 21016.1 -17.5-19.3
2017-Dec-15 10:00N 50°36' W 096°54'0 0.0 300 / 21016.9 -17.6-19.4
2017-Dec-15 09:00N 50°36' W 096°54'0 0.0 330 / 31017.4 -16.6-18.6
2017-Dec-15 08:00N 50°36' W 096°54'0 0.0 330 / 41017.8 -15.7-18.0
2017-Dec-15 07:00N 50°36' W 096°54'0 0.0 320 / 51018.2 -14.6-16.9
2017-Dec-15 06:00N 50°36' W 096°54'0 0.0 360 / 91018.6 -13.8-16.3
2017-Dec-15 05:00N 50°36' W 096°54'0 0.0 360 / 91019.0 -12.7-15.2
2017-Dec-15 04:00N 50°36' W 096°54'0 0.0 350 / 121018.7 -11.7-14.4
2017-Dec-15 03:00N 50°36' W 096°54'0 0.0 340 / 81019.0 -10.6-12.9
2017-Dec-15 02:00N 50°36' W 096°54'0 0.0 330 / 71019.4 -10.6-12.6
2017-Dec-15 01:00N 50°36' W 096°54'0 0.0 330 / 61019.4 -10.6-12.8
2017-Dec-15 00:00N 50°36' W 096°54'0 0.0 330 / 41019.5 -11.1-13.0
2017-Dec-14 23:00N 50°36' W 096°54'0 0.0 310 / 61019.6 -10.5-12.9
2017-Dec-14 22:00N 50°36' W 096°54'0 0.0 310 / 71019.3 -10.4-12.6
2017-Dec-14 21:00N 50°36' W 096°54'0 0.0 320 / 71019.0 -10.2-12.8
2017-Dec-14 20:00N 50°36' W 096°54'0 0.0 310 / 81019.0 -10.3-13.0
2017-Dec-14 19:00N 50°36' W 096°54'0 0.0 320 / 71019.7 -10.7-13.9
2017-Dec-14 18:00N 50°36' W 096°54'0 0.0 320 / 71020.2 -11.0-14.1
2017-Dec-14 17:00N 50°36' W 096°54'0 0.0 330 / 81020.3 -11.1-13.8
2017-Dec-14 16:00N 50°36' W 096°54'0 0.0 310 / 61020.3 -12.0-13.9
2017-Dec-14 15:00N 50°36' W 096°54'0 0.0 320 / 71020.4 -12.9-14.8
2017-Dec-14 14:00N 50°36' W 096°54'0 0.0 310 / 71019.6 -13.1-14.9
2017-Dec-14 13:00N 50°36' W 096°54'0 0.0 310 / 7 -12.6-13.9
2017-Dec-14 12:00N 50°36' W 096°54'0 0.0 310 / 71018.3 -12.3-13.5
2017-Dec-14 11:00N 50°36' W 096°54'0 0.0 310 / 5 -11.6-12.6
2017-Dec-14 10:00N 50°36' W 096°54'0 0.0 300 / 51017.1 -10.7-11.7
2017-Dec-14 09:00N 50°36' W 096°54'0 0.0 280 / 41017.1 -10.7-11.4
2017-Dec-14 08:00N 50°36' W 096°54'0 0.0 270 / 41016.9 -10.7-11.6
2017-Dec-14 07:00N 50°36' W 096°54'0 0.0 260 / 31016.8 -11.0-11.8
2017-Dec-14 06:00N 50°36' W 096°54'0 0.0 250 / 31016.8 -11.1-11.9
2017-Dec-14 05:00N 50°36' W 096°54'0 0.0 290 / 41017.0 -11.2-12.0
2017-Dec-14 04:00N 50°36' W 096°54'0 0.0 310 / 51017.1 -11.2-12.0
2017-Dec-14 03:00N 50°36' W 096°54'0 0.0 310 / 21017.1 -10.8-11.8
2017-Dec-14 02:00N 50°36' W 096°54'0 0.0 290 / 51017.5 -10.7-11.6
2017-Dec-14 01:00N 50°36' W 096°54'0 0.0 310 / 71017.6 -10.1-10.9
2017-Dec-14 00:00N 50°36' W 096°54'0 0.0 340 / 61017.0 -9.8-10.6
2017-Dec-13 23:00N 50°36' W 096°54'0 0.0 330 / 61016.5 -9.5-10.5
2017-Dec-13 22:00N 50°36' W 096°54'0 0.0 330 / 61015.9 -9.3-10.8
2017-Dec-13 21:00N 50°36' W 096°54'0 0.0 320 / 71015.2 -9.0-10.5
2017-Dec-13 20:00N 50°36' W 096°54'0 0.0 360 / 101014.0 -8.9-10.6
2017-Dec-13 19:00N 50°36' W 096°54'0 0.0 010 / 121013.6 -8.6-10.9
2017-Dec-13 18:00N 50°36' W 096°54'0 0.0 360 / 121013.1 -8.7-10.5
2017-Dec-13 17:00N 50°36' W 096°54'0 0.0 010 / 161012.4 -8.8-9.8
2017-Dec-13 16:00N 50°36' W 096°54'0 0.0 010 / 151011.2 -8.3-8.5
2017-Dec-13 15:00N 50°36' W 096°54'0 0.0 360 / 121010.2 -7.9-8.0
2017-Dec-13 14:00N 50°36' W 096°54'0 0.0 350 / 91008.9 -7.9-8.1
2017-Dec-13 13:00N 50°36' W 096°54'0 0.0 350 / 91007.9 -7.9-8.1
2017-Dec-13 12:00N 50°36' W 096°54'0 0.0 350 / 81007.3 -8.0-8.2
2017-Dec-13 11:00N 50°36' W 096°54'0 0.0 340 / 61006.1 -8.3-8.4
2017-Dec-13 10:00N 50°36' W 096°54'0 0.0 330 / 61004.9 -8.4-8.5
2017-Dec-13 09:00N 50°36' W 096°54'0 0.0 350 / 61004.1 -8.4-8.6
2017-Dec-13 08:00N 50°36' W 096°54'0 0.0 330 / 31002.6 -8.2-8.5
2017-Dec-13 07:00N 50°36' W 096°54'0 0.0 090 / 11002.0 -7.8-8.3
2017-Dec-13 06:00N 50°36' W 096°54'0 0.0 090 / 41001.9 -7.7-8.1
2017-Dec-13 05:00N 50°36' W 096°54'0 0.0 070 / 101001.5 -7.7-8.2
2017-Dec-13 04:00N 50°36' W 096°54'0 0.0 080 / 81002.0 -7.5-7.7
2017-Dec-13 03:00N 50°36' W 096°54'0 0.0 140 / 111000.2 -7.9-8.1
2017-Dec-13 02:00N 50°36' W 096°54'0 0.0 140 / 111002.4 -7.6-7.8
2017-Dec-13 01:00N 50°36' W 096°54'0 0.0 130 / 131003.7 -7.5-7.7
2017-Dec-13 00:00N 50°36' W 096°54'0 0.0 140 / 161004.3 -8.6-8.7
2017-Dec-12 23:00N 50°36' W 096°54'0 0.0 130 / 141005.2 -8.1-8.3
2017-Dec-12 22:00N 50°36' W 096°54'0 0.0 140 / 141006.6 -8.5-8.6
2017-Dec-12 21:00N 50°36' W 096°54'0 0.0 140 / 131007.9 -9.0-9.2
2017-Dec-12 20:00N 50°36' W 096°54'0 0.0 140 / 121010.0 -9.7-9.9
2017-Dec-12 19:00N 50°36' W 096°54'0 0.0 150 / 141011.5 -10.7-11.3
2017-Dec-12 18:00N 50°36' W 096°54'0 0.0 140 / 141013.4 -11.4-12.3
2017-Dec-12 17:00N 50°36' W 096°54'0 0.0 140 / 121015.3 -11.3-12.3
2017-Dec-12 16:00N 50°36' W 096°54'0 0.0 150 / 131016.0 -11.9-12.9
2017-Dec-12 15:00N 50°36' W 096°54'0 0.0 130 / 111017.6 -11.6-12.4
2017-Dec-12 14:00N 50°36' W 096°54'0 0.0 130 / 101018.1 -11.4-12.1
2017-Dec-12 13:00N 50°36' W 096°54'0 0.0 150 / 111019.2 -12.2-12.7
2017-Dec-12 12:00N 50°36' W 096°54'0 0.0 170 / 81020.7 -12.8-13.4
2017-Dec-12 11:00N 50°36' W 096°54'0 0.0 180 / 91021.9 -13.2-14.4
2017-Dec-12 10:00N 50°36' W 096°54'0 0.0 190 / 71023.2 -14.3-15.5
2017-Dec-12 09:00N 50°36' W 096°54'0 0.0 180 / 71024.4 -15.2-16.5
2017-Dec-12 08:00N 50°36' W 096°54'0 0.0 180 / 31025.0 -15.9-17.2
2017-Dec-12 07:00N 50°36' W 096°54'0 0.0 210 / 31026.4 -16.3-17.6
2017-Dec-12 06:00N 50°36' W 096°54'0 0.0 260 / 61027.3 -17.0-18.3
2017-Dec-12 05:00N 50°36' W 096°54'0 0.0 250 / 41027.3 -16.3-17.5
2017-Dec-12 04:00N 50°36' W 096°54'0 0.0 250 / 41027.9 -15.9-17.2
2017-Dec-12 03:00N 50°36' W 096°54'0 0.0 230 / 41028.4 -15.8-17.4
2017-Dec-12 02:00N 50°36' W 096°54'0 0.0 250 / 51029.1 -15.0-17.1
2017-Dec-12 01:00N 50°36' W 096°54'0 0.0 280 / 51029.3 -14.0-16.7
2017-Dec-12 00:00N 50°36' W 096°54'0 0.0 270 / 51029.0 -14.0-16.9
2017-Dec-11 23:00N 50°36' W 096°54'0 0.0 290 / 41028.8 -13.2-16.7
2017-Dec-11 22:00N 50°36' W 096°54'0 0.0 310 / 51028.1 -11.7-16.2
2017-Dec-11 21:00N 50°36' W 096°54'0 0.0 320 / 101027.5 -11.3-16.4
2017-Dec-11 20:00N 50°36' W 096°54'0 0.0 320 / 111027.4 -11.5-16.5
2017-Dec-11 19:00N 50°36' W 096°54'0 0.0 310 / 101027.1 -11.9-16.5
2017-Dec-11 18:00N 50°36' W 096°54'0 0.0 330 / 111027.0 -12.5-16.7
2017-Dec-11 17:00N 50°36' W 096°54'0 0.0 320 / 111025.7 -13.1-16.8
2017-Dec-11 16:00N 50°36' W 096°54'0 0.0 340 / 141024.1 -13.2-16.6
2017-Dec-11 15:00N 50°36' W 096°54'0 0.0 340 / 141022.2 -13.0-15.7
2017-Dec-11 14:00N 50°36' W 096°54'0 0.0 350 / 201020.3 -11.7-13.8
2017-Dec-11 12:00N 50°36' W 096°54'0 0.0 340 / 151015.6 -7.4-7.8
2017-Dec-11 11:00N 50°36' W 096°54'0 0.0 340 / 191013.2 -6.5-6.9
2017-Dec-11 10:00N 50°36' W 096°54'0 0.0 340 / 151011.2 -5.6-5.7
2017-Dec-11 09:00N 50°36' W 096°54'0 0.0 350 / 81009.6 -5.8-5.9
2017-Dec-11 08:00N 50°36' W 096°54'0 0.0 050 / 31008.4 -5.7-5.8
2017-Dec-11 07:00N 50°36' W 096°54'0 0.0 140 / 61007.4 -5.4-5.5
2017-Dec-11 06:00N 50°36' W 096°54'0 0.0 160 / 71007.1 -5.9-6.0
2017-Dec-11 05:00N 50°36' W 096°54'0 0.0 160 / 101007.5 -6.2-6.2
2017-Dec-11 04:00N 50°36' W 096°54'0 0.0 170 / 111008.0 -6.4-6.5
2017-Dec-11 03:00N 50°36' W 096°54'0 0.0 170 / 141009.5 -6.7-6.8
2017-Dec-11 02:00N 50°36' W 096°54'0 0.0 170 / 121011.2 -7.2-7.4
2017-Dec-11 01:00N 50°36' W 096°54'0 0.0 170 / 101013.5 -7.6-8.6
2017-Dec-11 00:00N 50°36' W 096°54'0 0.0 160 / 121014.1 -7.9-8.6
2017-Dec-10 23:00N 50°36' W 096°54'0 0.0 140 / 71015.6 -8.7-9.2
2017-Dec-10 22:00N 50°36' W 096°54'0 0.0 140 / 61016.7 -8.5-9.3
2017-Dec-10 21:00N 50°36' W 096°54'0 0.0 130 / 51017.5 -8.1-9.4
2017-Dec-10 20:00N 50°36' W 096°54'0 0.0 120 / 31018.2 -6.0-9.3
2017-Dec-10 19:00N 50°36' W 096°54'0 0.0 060 / 41019.0 -7.4-9.9
2017-Dec-10 18:00N 50°36' W 096°54'0 0.0 040 / 41019.6 -7.7-10.0
2017-Dec-10 17:00N 50°36' W 096°54'0 0.0 010 / 41019.5 -8.4-10.3
2017-Dec-10 16:00N 50°36' W 096°54'0 0.0 330 / 31018.8 -8.6-10.0
2017-Dec-10 15:00N 50°36' W 096°54'0 0.0 340 / 41018.9 -8.7-9.5
2017-Dec-10 14:00N 50°36' W 096°54'0 0.0 340 / 41019.2 -8.5-9.4
2017-Dec-10 13:00N 50°36' W 096°54'0 0.0 340 / 51018.3 -8.1-8.9
2017-Dec-10 12:00N 50°36' W 096°54'0 0.0 320 / 51017.9 -7.8-9.2
2017-Dec-10 11:00N 50°36' W 096°54'0 0.0 320 / 41017.5 -7.4-9.0
2017-Dec-10 10:00N 50°36' W 096°54'0 0.0 330 / 41016.8 -7.3-8.7
2017-Dec-10 09:00N 50°36' W 096°54'0 0.0 320 / 51016.4 -7.2-8.4
2017-Dec-10 08:00N 50°36' W 096°54'0 0.0 310 / 41015.9 -7.1-8.2
2017-Dec-10 07:00N 50°36' W 096°54'0 0.0 330 / 51014.9 -6.8-8.0
2017-Dec-10 06:00N 50°36' W 096°54'0 0.0 310 / 51014.1 -7.0-8.2
2017-Dec-10 05:00N 50°36' W 096°54'0 0.0 330 / 51013.4 -6.8-8.2
2017-Dec-10 04:00N 50°36' W 096°54'0 0.0 330 / 41012.4 -6.9-8.1
2017-Dec-10 03:00N 50°36' W 096°54'0 0.0 050 / 41011.3 -6.4-8.0
2017-Dec-10 02:00N 50°36' W 096°54'0 0.0 110 / 51010.4 -6.4-8.1
2017-Dec-10 01:00N 50°36' W 096°54'0 0.0 100 / 61010.2 -6.5-7.5
2017-Dec-10 00:00N 50°36' W 096°54'0 0.0 140 / 71009.7 -6.8-7.8
2017-Dec-09 23:00N 50°36' W 096°54'0 0.0 170 / 111008.9 -7.1-8.3
2017-Dec-09 22:00N 50°36' W 096°54'0 0.0 170 / 121009.2 -6.8-8.5
2017-Dec-09 21:00N 50°36' W 096°54'0 0.0 170 / 181009.6 -7.1-9.0
2017-Dec-09 20:00N 50°36' W 096°54'0 0.0 170 / 151009.8 -7.0-9.5
2017-Dec-09 19:00N 50°36' W 096°54'0 0.0 190 / 191011.6 -7.4-10.0
2017-Dec-09 18:00N 50°36' W 096°54'0 0.0 190 / 151014.9 -8.0-10.9
2017-Dec-09 17:00N 50°36' W 096°54'0 0.0 180 / 131016.2 -8.4-11.9
2017-Dec-09 16:00N 50°36' W 096°54'0 0.0 190 / 81018.0 -10.0-12.2
2017-Dec-09 15:00N 50°36' W 096°54'0 0.0 210 / 71019.2 -10.6-12.8
2017-Dec-09 14:00N 50°36' W 096°54'0 0.0 200 / 71020.1 -11.6-13.5
2017-Dec-09 13:00N 50°36' W 096°54'0 0.0 200 / 41021.0 -11.8-13.8
2017-Dec-09 12:00N 50°36' W 096°54'0 0.0 240 / 31021.1 -12.2-14.0
2017-Dec-09 11:00N 50°36' W 096°54'0 0.0 250 / 41021.7 -12.6-14.1
2017-Dec-09 10:00N 50°36' W 096°54'0 0.0 280 / 31021.6 -11.8-14.3
2017-Dec-09 09:00N 50°36' W 096°54'0 0.0 340 / 51021.2 -10.9-13.9
2017-Dec-09 08:00N 50°36' W 096°54'0 0.0 360 / 81021.0 -10.2-13.1
2017-Dec-09 07:00N 50°36' W 096°54'0 0.0 340 / 61020.5 -9.9-13.2
2017-Dec-09 06:00N 50°36' W 096°54'0 0.0 360 / 131019.8 -9.1-12.4
2017-Dec-09 05:00N 50°36' W 096°54'0 0.0 340 / 111018.9 -8.7-12.3
2017-Dec-09 04:00N 50°36' W 096°54'0 0.0 350 / 121018.1 -8.6-11.9
2017-Dec-09 03:00N 50°36' W 096°54'0 0.0 350 / 161016.9 -8.4-11.5
2017-Dec-09 02:00N 50°36' W 096°54'0 0.0 340 / 151015.4 -7.8-11.3
2017-Dec-09 01:00N 50°36' W 096°54'0 0.0 350 / 221014.6 -7.2-10.8
2017-Dec-09 00:00N 50°36' W 096°54'0 0.0 350 / 181013.2 -6.5-9.1
2017-Dec-08 23:00N 50°36' W 096°54'0 0.0 350 / 171011.9 -6.1-10.5
2017-Dec-08 22:00N 50°36' W 096°54'0 0.0 330 / 211010.1 -6.4-10.5
2017-Dec-08 21:00N 50°36' W 096°54'0 0.0 350 / 211008.3 -6.5-9.0
2017-Dec-08 20:00N 50°36' W 096°54'0 0.0 350 / 231006.5 -5.6-7.2
2017-Dec-08 19:00N 50°36' W 096°54'0 0.0 330 / 151005.7 -3.8-5.9
2017-Dec-08 18:00N 50°36' W 096°54'0 0.0 270 / 71006.8 -5.4-6.8
2017-Dec-08 17:00N 50°36' W 096°54'0 0.0 220 / 91008.3 -7.5-8.4
2017-Dec-08 16:00N 50°36' W 096°54'0 0.0 230 / 51009.5 -8.8-9.4
2017-Dec-08 15:00N 50°36' W 096°54'0 0.0 210 / 81010.8 -9.9-10.4
2017-Dec-08 14:00N 50°36' W 096°54'0 0.0 190 / 71012.9 -10.8-11.4
2017-Dec-08 13:00N 50°36' W 096°54'0 0.0 200 / 51014.3 -11.3-12.2
2017-Dec-08 12:00N 50°36' W 096°54'0 0.0 240 / 31015.3 -11.4-12.6
2017-Dec-08 11:00N 50°36' W 096°54'0 0.0 250 / 21016.2 -11.3-12.7
2017-Dec-08 10:00N 50°36' W 096°54'0 0.0 320 / 21016.9 -11.3-12.7
2017-Dec-08 09:00N 50°36' W 096°54'0 0.0 330 / 51017.5 -11.2-12.7
2017-Dec-08 08:00N 50°36' W 096°54'0 0.0 350 / 81017.2 -11.0-12.7
2017-Dec-08 07:00N 50°36' W 096°54'0 0.0 340 / 81017.0 -10.4-11.6
2017-Dec-08 06:00N 50°36' W 096°54'0 0.0 340 / 91016.7 -9.2-10.5
2017-Dec-08 05:00N 50°36' W 096°54'0 0.0 350 / 101016.1 -8.9-10.1
2017-Dec-08 04:00N 50°36' W 096°54'0 0.0 340 / 91015.7 -8.7-9.9
2017-Dec-08 03:00N 50°36' W 096°54'0 0.0 350 / 101015.8 -8.3-9.5
2017-Dec-08 02:00N 50°36' W 096°54'0 0.0 340 / 81015.8 -8.1-9.3
2017-Dec-08 01:00N 50°36' W 096°54'0 0.0 340 / 71015.6 -7.8-8.7
2017-Dec-08 00:00N 50°36' W 096°54'0 0.0 340 / 61015.4 -7.6-8.6
2017-Dec-07 23:00N 50°36' W 096°54'0 0.0 330 / 71014.8 -7.3-8.4
2017-Dec-07 22:00N 50°36' W 096°54'0 0.0 320 / 71014.8 -6.7-8.0
2017-Dec-07 21:00N 50°36' W 096°54'0 0.0 310 / 61014.4 -6.3-7.7
2017-Dec-07 20:00N 50°36' W 096°54'0 0.0 310 / 81014.2 -6.6-8.2
2017-Dec-07 19:00N 50°36' W 096°54'0 0.0 300 / 81015.3 -7.0-9.5
2017-Dec-07 18:00N 50°36' W 096°54'0 0.0 280 / 51016.6 -7.9-11.2
2017-Dec-07 17:00N 50°36' W 096°54'0 0.0 260 / 61017.4 -9.3-12.4
2017-Dec-07 16:00N 50°36' W 096°54'0 0.0 250 / 71017.9 -11.1-14.3
2017-Dec-07 15:00N 50°36' W 096°54'0 0.0 220 / 81018.8 -12.2-15.4
2017-Dec-07 14:00N 50°36' W 096°54'0 0.0 200 / 61020.0 -12.4-15.4
2017-Dec-07 13:00N 50°36' W 096°54'0 0.0 200 / 61020.5 -12.3-15.7
2017-Dec-07 12:00N 50°36' W 096°54'0 0.0 200 / 61021.5 -12.1-15.9
2017-Dec-07 11:00N 50°36' W 096°54'0 0.0 220 / 51022.8 -11.9-16.4
2017-Dec-07 10:00N 50°36' W 096°54'0 0.0 250 / 41023.2 -12.1-16.6
2017-Dec-07 09:00N 50°36' W 096°54'0 0.0 230 / 71024.0 -12.1-17.0
2017-Dec-07 08:00N 50°36' W 096°54'0 0.0 250 / 51025.6 -12.5-17.6
2017-Dec-07 07:00N 50°36' W 096°54'0 0.0 240 / 131025.5 -13.1-17.9
2017-Dec-07 06:00N 50°36' W 096°54'0 0.0 240 / 101027.4 -13.9-18.3
2017-Dec-07 05:00N 50°36' W 096°54'0 0.0 260 / 91028.9 -14.7-19.2
2017-Dec-07 04:00N 50°36' W 096°54'0 0.0 270 / 81030.3 -15.5-19.8
2017-Dec-07 03:00N 50°36' W 096°54'0 0.0 270 / 71030.6 -15.9-19.9
2017-Dec-07 02:00N 50°36' W 096°54'0 0.0 280 / 61031.4 -16.5-20.5
2017-Dec-07 01:00N 50°36' W 096°54'0 0.0 280 / 61031.9 -16.6-21.4
2017-Dec-07 00:00N 50°36' W 096°54'   270 / 81031.8 -15.9-21.2
Track history (hours):
 
Tides and Currents Weather Stations Pressure Air Temp Water Temp Dewpoint Dewpoint Depression Visibility Wind Speed Wind Dir Waves Ship Positions

Oceanographic research ship Namao (Canada)

Last reported at 2017-Dec-17 00:00 UTC. Time now 2017-Dec-17 00:53 UTC.
Position N 50°36' W 096°54'.

Wind from 190 at 7 knots

Barometer 1017.1 mb
Air temperature -11.8 ° C
Dewpoint -13.3 ° C

Date/timePositionNaut miles runAvg speedWind from/ knotsBaromVisibWave heightAir tempDewpointWater temp
2017-Dec-17 00:00N 50°36' W 096°54'0 0.0 190 / 71017.1 -11.8-13.3
2017-Dec-16 23:00N 50°36' W 096°54'0 0.0 170 / 81016.5 -12.0-13.8
2017-Dec-16 22:00N 50°36' W 096°54'0 0.0 180 / 71016.3 -12.3-14.1
2017-Dec-16 21:00N 50°36' W 096°54'0 0.0 160 / 91015.6 -12.7-14.4
2017-Dec-16 20:00N 50°36' W 096°54'0 0.0 160 / 71015.7 -13.3-14.9
2017-Dec-16 19:00N 50°36' W 096°54'0 0.0 140 / 91015.6 -13.9-15.6
2017-Dec-16 18:00N 50°36' W 096°54'0 0.0 130 / 91015.7 -14.1-15.9
2017-Dec-16 17:00N 50°36' W 096°54'0 0.0 140 / 101016.0 -15.3-17.5
2017-Dec-16 16:00N 50°36' W 096°54'0 0.0 120 / 111015.1 -15.1-17.7
2017-Dec-16 15:00N 50°36' W 096°54'0 0.0 110 / 121014.5 -15.2-17.7
2017-Dec-16 14:00N 50°36' W 096°54'0 0.0 130 / 111013.6 -15.4-17.8
2017-Dec-16 13:00N 50°36' W 096°54'0 0.0 120 / 111013.2 -15.5-17.9
2017-Dec-16 12:00N 50°36' W 096°54'0 0.0 100 / 81012.8 -15.7-17.9
2017-Dec-16 11:00N 50°36' W 096°54'0 0.0 100 / 111012.1 -15.6-17.9
2017-Dec-16 10:00N 50°36' W 096°54'0 0.0 110 / 121012.5 -15.7-18.2
2017-Dec-16 09:00N 50°36' W 096°54'0 0.0 110 / 111012.3 -15.8-18.6
2017-Dec-16 08:00N 50°36' W 096°54'0 0.0 100 / 101011.5 -15.8-18.7
2017-Dec-16 07:00N 50°36' W 096°54'0 0.0 100 / 111011.7 -15.9-18.8
2017-Dec-16 06:00N 50°36' W 096°54'0 0.0 090 / 121010.9 -15.6-18.4
2017-Dec-16 05:00N 50°36' W 096°54'0 0.0 100 / 111010.4 -14.9-17.6
2017-Dec-16 04:00N 50°36' W 096°54'0 0.0 100 / 121010.1 -14.7-17.3
2017-Dec-16 03:00N 50°36' W 096°54'0 0.0 090 / 121010.1 -14.5-17.1
2017-Dec-16 02:00N 50°36' W 096°54'0 0.0 090 / 101010.1 -14.3-16.9
2017-Dec-16 01:00N 50°36' W 096°54'0 0.0 090 / 111009.9 -14.4-16.7
2017-Dec-16 00:00N 50°36' W 096°54'0 0.0 090 / 131010.1 -14.4-16.6
2017-Dec-15 23:00N 50°36' W 096°54'0 0.0 080 / 111010.3 -13.9-15.8
2017-Dec-15 22:00N 50°36' W 096°54'0 0.0 090 / 91010.4 -13.7-15.1
2017-Dec-15 21:00N 50°36' W 096°54'0 0.0 090 / 81010.4 -13.8-15.6
2017-Dec-15 20:00N 50°36' W 096°54'0 0.0 090 / 101010.2 -14.2-16.3
2017-Dec-15 19:00N 50°36' W 096°54'0 0.0 080 / 91011.1 -14.2-15.8
2017-Dec-15 18:00N 50°36' W 096°54'0 0.0 090 / 81011.8 -13.7-15.6
2017-Dec-15 17:00N 50°36' W 096°54'0 0.0 110 / 61012.7 -13.8-15.5
2017-Dec-15 16:00N 50°36' W 096°54'0 0.0 120 / 61012.9 -14.9-16.6
2017-Dec-15 15:00N 50°36' W 096°54'0 0.0 110 / 51013.9 -15.5-17.3
2017-Dec-15 14:00N 50°36' W 096°54'0 0.0 090 / 41014.3 -16.0-17.7
2017-Dec-15 13:00N 50°36' W 096°54'0 0.0 150 / 31015.0 -19.0-20.9
2017-Dec-15 12:00N 50°36' W 096°54'0 0.0 140 / 21015.7 -17.0-18.8
2017-Dec-15 11:00N 50°36' W 096°54'0 0.0 360 / 21016.1 -17.5-19.3
2017-Dec-15 10:00N 50°36' W 096°54'0 0.0 300 / 21016.9 -17.6-19.4
2017-Dec-15 09:00N 50°36' W 096°54'0 0.0 330 / 31017.4 -16.6-18.6
2017-Dec-15 08:00N 50°36' W 096°54'0 0.0 330 / 41017.8 -15.7-18.0
2017-Dec-15 07:00N 50°36' W 096°54'0 0.0 320 / 51018.2 -14.6-16.9
2017-Dec-15 06:00N 50°36' W 096°54'0 0.0 360 / 91018.6 -13.8-16.3
2017-Dec-15 05:00N 50°36' W 096°54'0 0.0 360 / 91019.0 -12.7-15.2
2017-Dec-15 04:00N 50°36' W 096°54'0 0.0 350 / 121018.7 -11.7-14.4
2017-Dec-15 03:00N 50°36' W 096°54'0 0.0 340 / 81019.0 -10.6-12.9
2017-Dec-15 02:00N 50°36' W 096°54'0 0.0 330 / 71019.4 -10.6-12.6
2017-Dec-15 01:00N 50°36' W 096°54'0 0.0 330 / 61019.4 -10.6-12.8
2017-Dec-15 00:00N 50°36' W 096°54'0 0.0 330 / 41019.5 -11.1-13.0
2017-Dec-14 23:00N 50°36' W 096°54'0 0.0 310 / 61019.6 -10.5-12.9
2017-Dec-14 22:00N 50°36' W 096°54'0 0.0 310 / 71019.3 -10.4-12.6
2017-Dec-14 21:00N 50°36' W 096°54'0 0.0 320 / 71019.0 -10.2-12.8
2017-Dec-14 20:00N 50°36' W 096°54'0 0.0 310 / 81019.0 -10.3-13.0
2017-Dec-14 19:00N 50°36' W 096°54'0 0.0 320 / 71019.7 -10.7-13.9
2017-Dec-14 18:00N 50°36' W 096°54'0 0.0 320 / 71020.2 -11.0-14.1
2017-Dec-14 17:00N 50°36' W 096°54'0 0.0 330 / 81020.3 -11.1-13.8
2017-Dec-14 16:00N 50°36' W 096°54'0 0.0 310 / 61020.3 -12.0-13.9
2017-Dec-14 15:00N 50°36' W 096°54'0 0.0 320 / 71020.4 -12.9-14.8
2017-Dec-14 14:00N 50°36' W 096°54'0 0.0 310 / 71019.6 -13.1-14.9
2017-Dec-14 13:00N 50°36' W 096°54'0 0.0 310 / 7 -12.6-13.9
2017-Dec-14 12:00N 50°36' W 096°54'0 0.0 310 / 71018.3 -12.3-13.5
2017-Dec-14 11:00N 50°36' W 096°54'0 0.0 310 / 5 -11.6-12.6
2017-Dec-14 10:00N 50°36' W 096°54'0 0.0 300 / 51017.1 -10.7-11.7
2017-Dec-14 09:00N 50°36' W 096°54'0 0.0 280 / 41017.1 -10.7-11.4
2017-Dec-14 08:00N 50°36' W 096°54'0 0.0 270 / 41016.9 -10.7-11.6
2017-Dec-14 07:00N 50°36' W 096°54'0 0.0 260 / 31016.8 -11.0-11.8
2017-Dec-14 06:00N 50°36' W 096°54'0 0.0 250 / 31016.8 -11.1-11.9
2017-Dec-14 05:00N 50°36' W 096°54'0 0.0 290 / 41017.0 -11.2-12.0
2017-Dec-14 04:00N 50°36' W 096°54'0 0.0 310 / 51017.1 -11.2-12.0
2017-Dec-14 03:00N 50°36' W 096°54'0 0.0 310 / 21017.1 -10.8-11.8
2017-Dec-14 02:00N 50°36' W 096°54'0 0.0 290 / 51017.5 -10.7-11.6
2017-Dec-14 01:00N 50°36' W 096°54'0 0.0 310 / 71017.6 -10.1-10.9
2017-Dec-14 00:00N 50°36' W 096°54'0 0.0 340 / 61017.0 -9.8-10.6
2017-Dec-13 23:00N 50°36' W 096°54'0 0.0 330 / 61016.5 -9.5-10.5
2017-Dec-13 22:00N 50°36' W 096°54'0 0.0 330 / 61015.9 -9.3-10.8
2017-Dec-13 21:00N 50°36' W 096°54'0 0.0 320 / 71015.2 -9.0-10.5
2017-Dec-13 20:00N 50°36' W 096°54'0 0.0 360 / 101014.0 -8.9-10.6
2017-Dec-13 19:00N 50°36' W 096°54'0 0.0 010 / 121013.6 -8.6-10.9
2017-Dec-13 18:00N 50°36' W 096°54'0 0.0 360 / 121013.1 -8.7-10.5
2017-Dec-13 17:00N 50°36' W 096°54'0 0.0 010 / 161012.4 -8.8-9.8
2017-Dec-13 16:00N 50°36' W 096°54'0 0.0 010 / 151011.2 -8.3-8.5
2017-Dec-13 15:00N 50°36' W 096°54'0 0.0 360 / 121010.2 -7.9-8.0
2017-Dec-13 14:00N 50°36' W 096°54'0 0.0 350 / 91008.9 -7.9-8.1
2017-Dec-13 13:00N 50°36' W 096°54'0 0.0 350 / 91007.9 -7.9-8.1
2017-Dec-13 12:00N 50°36' W 096°54'0 0.0 350 / 81007.3 -8.0-8.2
2017-Dec-13 11:00N 50°36' W 096°54'0 0.0 340 / 61006.1 -8.3-8.4
2017-Dec-13 10:00N 50°36' W 096°54'0 0.0 330 / 61004.9 -8.4-8.5
2017-Dec-13 09:00N 50°36' W 096°54'0 0.0 350 / 61004.1 -8.4-8.6
2017-Dec-13 08:00N 50°36' W 096°54'0 0.0 330 / 31002.6 -8.2-8.5
2017-Dec-13 07:00N 50°36' W 096°54'0 0.0 090 / 11002.0 -7.8-8.3
2017-Dec-13 06:00N 50°36' W 096°54'0 0.0 090 / 41001.9 -7.7-8.1
2017-Dec-13 05:00N 50°36' W 096°54'0 0.0 070 / 101001.5 -7.7-8.2
2017-Dec-13 04:00N 50°36' W 096°54'0 0.0 080 / 81002.0 -7.5-7.7
2017-Dec-13 03:00N 50°36' W 096°54'0 0.0 140 / 111000.2 -7.9-8.1
2017-Dec-13 02:00N 50°36' W 096°54'0 0.0 140 / 111002.4 -7.6-7.8
2017-Dec-13 01:00N 50°36' W 096°54'0 0.0 130 / 131003.7 -7.5-7.7
2017-Dec-13 00:00N 50°36' W 096°54'0 0.0 140 / 161004.3 -8.6-8.7
2017-Dec-12 23:00N 50°36' W 096°54'0 0.0 130 / 141005.2 -8.1-8.3
2017-Dec-12 22:00N 50°36' W 096°54'0 0.0 140 / 141006.6 -8.5-8.6
2017-Dec-12 21:00N 50°36' W 096°54'0 0.0 140 / 131007.9 -9.0-9.2
2017-Dec-12 20:00N 50°36' W 096°54'0 0.0 140 / 121010.0 -9.7-9.9
2017-Dec-12 19:00N 50°36' W 096°54'0 0.0 150 / 141011.5 -10.7-11.3
2017-Dec-12 18:00N 50°36' W 096°54'0 0.0 140 / 141013.4 -11.4-12.3
2017-Dec-12 17:00N 50°36' W 096°54'0 0.0 140 / 121015.3 -11.3-12.3
2017-Dec-12 16:00N 50°36' W 096°54'0 0.0 150 / 131016.0 -11.9-12.9
2017-Dec-12 15:00N 50°36' W 096°54'0 0.0 130 / 111017.6 -11.6-12.4
2017-Dec-12 14:00N 50°36' W 096°54'0 0.0 130 / 101018.1 -11.4-12.1
2017-Dec-12 13:00N 50°36' W 096°54'0 0.0 150 / 111019.2 -12.2-12.7
2017-Dec-12 12:00N 50°36' W 096°54'0 0.0 170 / 81020.7 -12.8-13.4
2017-Dec-12 11:00N 50°36' W 096°54'0 0.0 180 / 91021.9 -13.2-14.4
2017-Dec-12 10:00N 50°36' W 096°54'0 0.0 190 / 71023.2 -14.3-15.5
2017-Dec-12 09:00N 50°36' W 096°54'0 0.0 180 / 71024.4 -15.2-16.5
2017-Dec-12 08:00N 50°36' W 096°54'0 0.0 180 / 31025.0 -15.9-17.2
2017-Dec-12 07:00N 50°36' W 096°54'0 0.0 210 / 31026.4 -16.3-17.6
2017-Dec-12 06:00N 50°36' W 096°54'0 0.0 260 / 61027.3 -17.0-18.3
2017-Dec-12 05:00N 50°36' W 096°54'0 0.0 250 / 41027.3 -16.3-17.5
2017-Dec-12 04:00N 50°36' W 096°54'0 0.0 250 / 41027.9 -15.9-17.2
2017-Dec-12 03:00N 50°36' W 096°54'0 0.0 230 / 41028.4 -15.8-17.4
2017-Dec-12 02:00N 50°36' W 096°54'0 0.0 250 / 51029.1 -15.0-17.1
2017-Dec-12 01:00N 50°36' W 096°54'0 0.0 280 / 51029.3 -14.0-16.7
2017-Dec-12 00:00N 50°36' W 096°54'0 0.0 270 / 51029.0 -14.0-16.9
2017-Dec-11 23:00N 50°36' W 096°54'0 0.0 290 / 41028.8 -13.2-16.7
2017-Dec-11 22:00N 50°36' W 096°54'0 0.0 310 / 51028.1 -11.7-16.2
2017-Dec-11 21:00N 50°36' W 096°54'0 0.0 320 / 101027.5 -11.3-16.4
2017-Dec-11 20:00N 50°36' W 096°54'0 0.0 320 / 111027.4 -11.5-16.5
2017-Dec-11 19:00N 50°36' W 096°54'0 0.0 310 / 101027.1 -11.9-16.5
2017-Dec-11 18:00N 50°36' W 096°54'0 0.0 330 / 111027.0 -12.5-16.7
2017-Dec-11 17:00N 50°36' W 096°54'0 0.0 320 / 111025.7 -13.1-16.8
2017-Dec-11 16:00N 50°36' W 096°54'0 0.0 340 / 141024.1 -13.2-16.6
2017-Dec-11 15:00N 50°36' W 096°54'0 0.0 340 / 141022.2 -13.0-15.7
2017-Dec-11 14:00N 50°36' W 096°54'0 0.0 350 / 201020.3 -11.7-13.8
2017-Dec-11 12:00N 50°36' W 096°54'0 0.0 340 / 151015.6 -7.4-7.8
2017-Dec-11 11:00N 50°36' W 096°54'0 0.0 340 / 191013.2 -6.5-6.9
2017-Dec-11 10:00N 50°36' W 096°54'0 0.0 340 / 151011.2 -5.6-5.7
2017-Dec-11 09:00N 50°36' W 096°54'0 0.0 350 / 81009.6 -5.8-5.9
2017-Dec-11 08:00N 50°36' W 096°54'0 0.0 050 / 31008.4 -5.7-5.8
2017-Dec-11 07:00N 50°36' W 096°54'0 0.0 140 / 61007.4 -5.4-5.5
2017-Dec-11 06:00N 50°36' W 096°54'0 0.0 160 / 71007.1 -5.9-6.0
2017-Dec-11 05:00N 50°36' W 096°54'0 0.0 160 / 101007.5 -6.2-6.2
2017-Dec-11 04:00N 50°36' W 096°54'0 0.0 170 / 111008.0 -6.4-6.5
2017-Dec-11 03:00N 50°36' W 096°54'0 0.0 170 / 141009.5 -6.7-6.8
2017-Dec-11 02:00N 50°36' W 096°54'0 0.0 170 / 121011.2 -7.2-7.4
2017-Dec-11 01:00N 50°36' W 096°54'0 0.0 170 / 101013.5 -7.6-8.6
2017-Dec-11 00:00N 50°36' W 096°54'0 0.0 160 / 121014.1 -7.9-8.6
2017-Dec-10 23:00N 50°36' W 096°54'0 0.0 140 / 71015.6 -8.7-9.2
2017-Dec-10 22:00N 50°36' W 096°54'0 0.0 140 / 61016.7 -8.5-9.3
2017-Dec-10 21:00N 50°36' W 096°54'0 0.0 130 / 51017.5 -8.1-9.4
2017-Dec-10 20:00N 50°36' W 096°54'0 0.0 120 / 31018.2 -6.0-9.3
2017-Dec-10 19:00N 50°36' W 096°54'0 0.0 060 / 41019.0 -7.4-9.9
2017-Dec-10 18:00N 50°36' W 096°54'0 0.0 040 / 41019.6 -7.7-10.0
2017-Dec-10 17:00N 50°36' W 096°54'0 0.0 010 / 41019.5 -8.4-10.3
2017-Dec-10 16:00N 50°36' W 096°54'0 0.0 330 / 31018.8 -8.6-10.0
2017-Dec-10 15:00N 50°36' W 096°54'0 0.0 340 / 41018.9 -8.7-9.5
2017-Dec-10 14:00N 50°36' W 096°54'0 0.0 340 / 41019.2 -8.5-9.4
2017-Dec-10 13:00N 50°36' W 096°54'0 0.0 340 / 51018.3 -8.1-8.9
2017-Dec-10 12:00N 50°36' W 096°54'0 0.0 320 / 51017.9 -7.8-9.2
2017-Dec-10 11:00N 50°36' W 096°54'0 0.0 320 / 41017.5 -7.4-9.0
2017-Dec-10 10:00N 50°36' W 096°54'0 0.0 330 / 41016.8 -7.3-8.7
2017-Dec-10 09:00N 50°36' W 096°54'0 0.0 320 / 51016.4 -7.2-8.4
2017-Dec-10 08:00N 50°36' W 096°54'0 0.0 310 / 41015.9 -7.1-8.2
2017-Dec-10 07:00N 50°36' W 096°54'0 0.0 330 / 51014.9 -6.8-8.0
2017-Dec-10 06:00N 50°36' W 096°54'0 0.0 310 / 51014.1 -7.0-8.2
2017-Dec-10 05:00N 50°36' W 096°54'0 0.0 330 / 51013.4 -6.8-8.2
2017-Dec-10 04:00N 50°36' W 096°54'0 0.0 330 / 41012.4 -6.9-8.1
2017-Dec-10 03:00N 50°36' W 096°54'0 0.0 050 / 41011.3 -6.4-8.0
2017-Dec-10 02:00N 50°36' W 096°54'0 0.0 110 / 51010.4 -6.4-8.1
2017-Dec-10 01:00N 50°36' W 096°54'0 0.0 100 / 61010.2 -6.5-7.5
2017-Dec-10 00:00N 50°36' W 096°54'0 0.0 140 / 71009.7 -6.8-7.8
2017-Dec-09 23:00N 50°36' W 096°54'0 0.0 170 / 111008.9 -7.1-8.3
2017-Dec-09 22:00N 50°36' W 096°54'0 0.0 170 / 121009.2 -6.8-8.5
2017-Dec-09 21:00N 50°36' W 096°54'0 0.0 170 / 181009.6 -7.1-9.0
2017-Dec-09 20:00N 50°36' W 096°54'0 0.0 170 / 151009.8 -7.0-9.5
2017-Dec-09 19:00N 50°36' W 096°54'0 0.0 190 / 191011.6 -7.4-10.0
2017-Dec-09 18:00N 50°36' W 096°54'0 0.0 190 / 151014.9 -8.0-10.9
2017-Dec-09 17:00N 50°36' W 096°54'0 0.0 180 / 131016.2 -8.4-11.9
2017-Dec-09 16:00N 50°36' W 096°54'0 0.0 190 / 81018.0 -10.0-12.2
2017-Dec-09 15:00N 50°36' W 096°54'0 0.0 210 / 71019.2 -10.6-12.8
2017-Dec-09 14:00N 50°36' W 096°54'0 0.0 200 / 71020.1 -11.6-13.5
2017-Dec-09 13:00N 50°36' W 096°54'0 0.0 200 / 41021.0 -11.8-13.8
2017-Dec-09 12:00N 50°36' W 096°54'0 0.0 240 / 31021.1 -12.2-14.0
2017-Dec-09 11:00N 50°36' W 096°54'0 0.0 250 / 41021.7 -12.6-14.1
2017-Dec-09 10:00N 50°36' W 096°54'0 0.0 280 / 31021.6 -11.8-14.3
2017-Dec-09 09:00N 50°36' W 096°54'0 0.0 340 / 51021.2 -10.9-13.9
2017-Dec-09 08:00N 50°36' W 096°54'0 0.0 360 / 81021.0 -10.2-13.1
2017-Dec-09 07:00N 50°36' W 096°54'0 0.0 340 / 61020.5 -9.9-13.2
2017-Dec-09 06:00N 50°36' W 096°54'0 0.0 360 / 131019.8 -9.1-12.4
2017-Dec-09 05:00N 50°36' W 096°54'0 0.0 340 / 111018.9 -8.7-12.3
2017-Dec-09 04:00N 50°36' W 096°54'0 0.0 350 / 121018.1 -8.6-11.9
2017-Dec-09 03:00N 50°36' W 096°54'0 0.0 350 / 161016.9 -8.4-11.5
2017-Dec-09 02:00N 50°36' W 096°54'0 0.0 340 / 151015.4 -7.8-11.3
2017-Dec-09 01:00N 50°36' W 096°54'0 0.0 350 / 221014.6 -7.2-10.8
2017-Dec-09 00:00N 50°36' W 096°54'0 0.0 350 / 181013.2 -6.5-9.1
2017-Dec-08 23:00N 50°36' W 096°54'0 0.0 350 / 171011.9 -6.1-10.5
2017-Dec-08 22:00N 50°36' W 096°54'0 0.0 330 / 211010.1 -6.4-10.5
2017-Dec-08 21:00N 50°36' W 096°54'0 0.0 350 / 211008.3 -6.5-9.0
2017-Dec-08 20:00N 50°36' W 096°54'0 0.0 350 / 231006.5 -5.6-7.2
2017-Dec-08 19:00N 50°36' W 096°54'0 0.0 330 / 151005.7 -3.8-5.9
2017-Dec-08 18:00N 50°36' W 096°54'0 0.0 270 / 71006.8 -5.4-6.8
2017-Dec-08 17:00N 50°36' W 096°54'0 0.0 220 / 91008.3 -7.5-8.4
2017-Dec-08 16:00N 50°36' W 096°54'0 0.0 230 / 51009.5 -8.8-9.4
2017-Dec-08 15:00N 50°36' W 096°54'0 0.0 210 / 81010.8 -9.9-10.4
2017-Dec-08 14:00N 50°36' W 096°54'0 0.0 190 / 71012.9 -10.8-11.4
2017-Dec-08 13:00N 50°36' W 096°54'0 0.0 200 / 51014.3 -11.3-12.2
2017-Dec-08 12:00N 50°36' W 096°54'0 0.0 240 / 31015.3 -11.4-12.6
2017-Dec-08 11:00N 50°36' W 096°54'0 0.0 250 / 21016.2 -11.3-12.7
2017-Dec-08 10:00N 50°36' W 096°54'0 0.0 320 / 21016.9 -11.3-12.7
2017-Dec-08 09:00N 50°36' W 096°54'0 0.0 330 / 51017.5 -11.2-12.7
2017-Dec-08 08:00N 50°36' W 096°54'0 0.0 350 / 81017.2 -11.0-12.7
2017-Dec-08 07:00N 50°36' W 096°54'0 0.0 340 / 81017.0 -10.4-11.6
2017-Dec-08 06:00N 50°36' W 096°54'0 0.0 340 / 91016.7 -9.2-10.5
2017-Dec-08 05:00N 50°36' W 096°54'0 0.0 350 / 101016.1 -8.9-10.1
2017-Dec-08 04:00N 50°36' W 096°54'0 0.0 340 / 91015.7 -8.7-9.9
2017-Dec-08 03:00N 50°36' W 096°54'0 0.0 350 / 101015.8 -8.3-9.5
2017-Dec-08 02:00N 50°36' W 096°54'0 0.0 340 / 81015.8 -8.1-9.3
2017-Dec-08 01:00N 50°36' W 096°54'0 0.0 340 / 71015.6 -7.8-8.7
2017-Dec-08 00:00N 50°36' W 096°54'0 0.0 340 / 61015.4 -7.6-8.6
2017-Dec-07 23:00N 50°36' W 096°54'0 0.0 330 / 71014.8 -7.3-8.4
2017-Dec-07 22:00N 50°36' W 096°54'0 0.0 320 / 71014.8 -6.7-8.0
2017-Dec-07 21:00N 50°36' W 096°54'0 0.0 310 / 61014.4 -6.3-7.7
2017-Dec-07 20:00N 50°36' W 096°54'0 0.0 310 / 81014.2 -6.6-8.2
2017-Dec-07 19:00N 50°36' W 096°54'0 0.0 300 / 81015.3 -7.0-9.5
2017-Dec-07 18:00N 50°36' W 096°54'0 0.0 280 / 51016.6 -7.9-11.2
2017-Dec-07 17:00N 50°36' W 096°54'0 0.0 260 / 61017.4 -9.3-12.4
2017-Dec-07 16:00N 50°36' W 096°54'0 0.0 250 / 71017.9 -11.1-14.3
2017-Dec-07 15:00N 50°36' W 096°54'0 0.0 220 / 81018.8 -12.2-15.4
2017-Dec-07 14:00N 50°36' W 096°54'0 0.0 200 / 61020.0 -12.4-15.4
2017-Dec-07 13:00N 50°36' W 096°54'0 0.0 200 / 61020.5 -12.3-15.7
2017-Dec-07 12:00N 50°36' W 096°54'0 0.0 200 / 61021.5 -12.1-15.9
2017-Dec-07 11:00N 50°36' W 096°54'0 0.0 220 / 51022.8 -11.9-16.4
2017-Dec-07 10:00N 50°36' W 096°54'0 0.0 250 / 41023.2 -12.1-16.6
2017-Dec-07 09:00N 50°36' W 096°54'0 0.0 230 / 71024.0 -12.1-17.0
2017-Dec-07 08:00N 50°36' W 096°54'0 0.0 250 / 51025.6 -12.5-17.6
2017-Dec-07 07:00N 50°36' W 096°54'0 0.0 240 / 131025.5 -13.1-17.9
2017-Dec-07 06:00N 50°36' W 096°54'0 0.0 240 / 101027.4 -13.9-18.3
2017-Dec-07 05:00N 50°36' W 096°54'0 0.0 260 / 91028.9 -14.7-19.2
2017-Dec-07 04:00N 50°36' W 096°54'0 0.0 270 / 81030.3 -15.5-19.8
2017-Dec-07 03:00N 50°36' W 096°54'0 0.0 270 / 71030.6 -15.9-19.9
2017-Dec-07 02:00N 50°36' W 096°54'0 0.0 280 / 61031.4 -16.5-20.5
2017-Dec-07 01:00N 50°36' W 096°54'0 0.0 280 / 61031.9 -16.6-21.4
2017-Dec-07 00:00N 50°36' W 096°54'   270 / 81031.8 -15.9-21.2

Dump ship's entire track history